createdAt,value
2022-09-17T00:01:57.472Z,12.26
2022-09-17T00:04:25.000Z,12.38
2022-09-17T00:06:52.003Z,12.37
2022-09-17T00:09:21.422Z,12.29
2022-09-17T00:11:48.377Z,12.34
2022-09-17T00:14:17.880Z,12.20
2022-09-17T00:16:49.306Z,12.48
2022-09-17T00:19:22.994Z,12.53
2022-09-17T00:21:56.191Z,12.46
2022-09-17T00:24:23.183Z,12.40
2022-09-17T00:26:50.668Z,12.45
2022-09-17T00:29:17.913Z,12.56
2022-09-17T00:31:45.005Z,12.67
2022-09-17T00:34:12.204Z,12.57
2022-09-17T00:36:41.109Z,12.42
2022-09-17T00:39:12.181Z,12.57
2022-09-17T00:41:39.754Z,12.56
2022-09-17T00:45:00.035Z,12.21
2022-09-17T00:47:46.018Z,12.48
2022-09-17T00:50:39.523Z,12.46
2022-09-17T00:53:16.491Z,12.58
2022-09-17T00:56:26.137Z,12.71
2022-09-17T00:58:56.403Z,12.49
2022-09-17T01:01:23.918Z,12.49
2022-09-17T01:03:51.030Z,12.66
2022-09-17T01:06:55.770Z,12.73
2022-09-17T01:10:21.456Z,12.51
2022-09-17T01:13:31.757Z,12.57
2022-09-17T01:16:28.856Z,12.47
2022-09-17T01:19:43.960Z,12.55
2022-09-17T01:22:34.363Z,12.74
2022-09-17T01:25:28.593Z,12.61
2022-09-17T01:28:33.545Z,12.67
2022-09-17T01:31:49.096Z,12.39
2022-09-17T01:34:59.036Z,12.54
2022-09-17T01:38:01.486Z,12.55
2022-09-17T01:40:56.820Z,12.54
2022-09-17T01:43:46.571Z,12.61
2022-09-17T01:46:24.902Z,12.32
2022-09-17T01:49:05.200Z,12.58
2022-09-17T01:51:49.246Z,12.42
2022-09-17T01:54:35.574Z,12.48
2022-09-17T01:57:33.711Z,12.44
2022-09-17T02:00:19.260Z,12.59
2022-09-17T02:03:13.366Z,12.63
2022-09-17T02:06:03.144Z,12.37
2022-09-17T02:09:21.197Z,12.61
2022-09-17T02:11:56.641Z,12.66
2022-09-17T02:14:47.404Z,12.64
2022-09-17T02:17:30.375Z,12.47
2022-09-17T02:19:57.851Z,12.54
2022-09-17T02:22:42.319Z,12.56
2022-09-17T02:25:39.119Z,12.62
2022-09-17T02:28:59.718Z,12.49
2022-09-17T02:31:27.097Z,12.35
2022-09-17T02:34:02.181Z,12.51
2022-09-17T02:36:32.138Z,12.38
2022-09-17T02:39:02.691Z,12.48
2022-09-17T02:41:51.764Z,12.45
2022-09-17T02:44:53.144Z,12.73
2022-09-17T02:48:12.348Z,12.72
2022-09-17T02:51:35.245Z,12.76
2022-09-17T02:54:39.732Z,12.67
2022-09-17T02:57:41.582Z,12.62
2022-09-17T03:00:22.337Z,12.67
2022-09-17T03:03:05.869Z,12.71
2022-09-17T03:05:38.816Z,12.67
2022-09-17T03:08:12.462Z,12.66
2022-09-17T03:10:40.141Z,12.65
2022-09-17T03:13:07.291Z,12.65
2022-09-17T03:15:34.223Z,12.72
2022-09-17T03:18:01.795Z,12.67
2022-09-17T03:20:28.758Z,12.49
2022-09-17T03:22:55.875Z,12.31
2022-09-17T03:25:22.875Z,12.49
2022-09-17T03:27:50.016Z,12.41
2022-09-17T03:30:17.046Z,12.52
2022-09-17T03:32:44.037Z,12.44
2022-09-17T03:35:11.028Z,12.67
2022-09-17T03:37:38.079Z,12.71
2022-09-17T03:40:06.527Z,12.48
2022-09-17T03:42:33.534Z,12.43
2022-09-17T03:45:00.495Z,12.45
2022-09-17T03:47:27.438Z,12.46
2022-09-17T03:49:54.412Z,12.31
2022-09-17T03:52:21.388Z,12.26
2022-09-17T03:54:51.070Z,12.45
2022-09-17T03:57:18.013Z,12.55
2022-09-17T03:59:45.119Z,12.43
2022-09-17T04:02:12.163Z,12.57
2022-09-17T04:04:44.133Z,12.47
2022-09-17T04:07:11.157Z,12.59
2022-09-17T04:09:38.604Z,12.56
2022-09-17T04:12:05.694Z,12.72
2022-09-17T04:14:46.551Z,12.78
2022-09-17T04:17:18.359Z,12.27
2022-09-17T04:19:48.822Z,12.44
2022-09-17T04:22:15.780Z,12.61
2022-09-17T04:24:43.533Z,12.54
2022-09-17T04:27:10.576Z,12.60
2022-09-17T04:29:41.155Z,12.68
2022-09-17T04:32:19.251Z,12.45
2022-09-17T04:34:46.921Z,12.66
2022-09-17T04:37:13.919Z,12.54
2022-09-17T04:39:40.964Z,12.75
2022-09-17T04:42:07.959Z,12.80
2022-09-17T04:44:34.925Z,12.81
2022-09-17T04:47:05.547Z,12.81
2022-09-17T04:49:32.946Z,12.72
2022-09-17T04:51:59.932Z,12.67
2022-09-17T04:54:26.904Z,12.74
2022-09-17T04:56:54.031Z,12.68
2022-09-17T04:59:21.362Z,12.71
2022-09-17T05:01:52.324Z,12.79
2022-09-17T05:04:19.329Z,12.89
2022-09-17T05:06:46.372Z,12.82
2022-09-17T05:09:14.964Z,12.74
2022-09-17T05:11:42.272Z,12.86
2022-09-17T05:14:09.304Z,12.61
2022-09-17T05:16:36.351Z,12.80
2022-09-17T05:19:04.237Z,12.87
2022-09-17T05:21:31.299Z,12.90
2022-09-17T05:23:58.428Z,12.69
2022-09-17T05:26:49.434Z,12.67
2022-09-17T05:29:16.409Z,12.73
2022-09-17T05:31:43.743Z,12.77
2022-09-17T05:34:10.817Z,12.73
2022-09-17T05:36:38.118Z,12.86
2022-09-17T05:39:05.105Z,12.90
2022-09-17T05:41:32.110Z,13.05
2022-09-17T05:43:59.108Z,12.87
2022-09-17T05:46:26.189Z,13.02
2022-09-17T05:48:57.491Z,12.96
2022-09-17T05:51:24.948Z,13.04
2022-09-17T05:53:54.423Z,13.13
2022-09-17T05:56:21.941Z,12.97
2022-09-17T05:58:49.188Z,13.01
2022-09-17T06:01:16.412Z,13.14
2022-09-17T06:03:43.396Z,13.25
2022-09-17T06:06:10.991Z,13.40
2022-09-17T06:08:38.084Z,13.42
2022-09-17T06:11:09.379Z,13.24
2022-09-17T06:13:36.614Z,13.35
2022-09-17T06:16:04.663Z,13.17
2022-09-17T06:18:32.360Z,13.18
2022-09-17T06:21:03.030Z,13.22
2022-09-17T06:23:37.319Z,13.39
2022-09-17T06:26:08.837Z,13.27
2022-09-17T06:28:48.782Z,13.39
2022-09-17T06:31:16.230Z,13.41
2022-09-17T06:33:43.254Z,13.31
2022-09-17T06:36:14.593Z,13.23
2022-09-17T06:38:42.529Z,13.26
2022-09-17T06:41:09.804Z,13.53
2022-09-17T06:43:36.879Z,13.45
2022-09-17T06:46:06.571Z,13.10
2022-09-17T06:48:36.400Z,13.66
2022-09-17T06:51:10.906Z,13.57
2022-09-17T06:53:39.608Z,13.56
2022-09-17T06:56:08.869Z,13.78
2022-09-17T06:58:37.440Z,13.70
2022-09-17T07:01:29.835Z,13.70
2022-09-17T07:03:57.274Z,13.87
2022-09-17T07:06:25.031Z,13.59
2022-09-17T07:08:55.265Z,13.75
2022-09-17T07:11:25.335Z,13.77
2022-09-17T07:13:56.284Z,13.70
2022-09-17T07:16:24.142Z,13.83
2022-09-17T07:18:51.257Z,13.57
2022-09-17T07:21:18.703Z,13.73
2022-09-17T07:23:46.562Z,13.97
2022-09-17T07:26:18.622Z,13.89
2022-09-17T07:28:46.042Z,13.24
2022-09-17T07:31:16.718Z,13.49
2022-09-17T07:33:45.430Z,13.67
2022-09-17T07:36:17.791Z,13.57
2022-09-17T07:38:45.070Z,13.63
2022-09-17T07:41:17.767Z,13.53
2022-09-17T07:43:45.661Z,13.76
2022-09-17T07:46:23.503Z,13.54
2022-09-17T07:48:51.768Z,13.07
2022-09-17T07:51:23.377Z,13.20
2022-09-17T07:53:57.941Z,13.66
2022-09-17T07:56:27.938Z,13.59
2022-09-17T07:58:55.652Z,13.70
2022-09-17T08:01:22.861Z,14.05
2022-09-17T08:03:53.831Z,13.70
2022-09-17T08:06:26.870Z,13.70
2022-09-17T08:08:58.512Z,13.74
2022-09-17T08:11:54.562Z,14.12
2022-09-17T08:14:21.518Z,13.93
2022-09-17T08:16:49.865Z,13.81
2022-09-17T08:19:18.993Z,14.06
2022-09-17T08:21:46.088Z,14.03
2022-09-17T08:24:13.110Z,14.13
2022-09-17T08:26:41.160Z,14.32
2022-09-17T08:29:14.931Z,14.27
2022-09-17T08:31:42.223Z,14.23
2022-09-17T08:34:10.025Z,14.44
2022-09-17T08:36:40.376Z,13.90
2022-09-17T08:39:13.149Z,14.11
2022-09-17T08:41:53.046Z,14.46
2022-09-17T08:45:11.651Z,14.06
2022-09-17T08:47:45.664Z,14.26
2022-09-17T08:50:34.723Z,14.51
2022-09-17T08:53:50.063Z,14.96
2022-09-17T08:56:19.497Z,15.14
2022-09-17T08:59:35.835Z,14.96
2022-09-17T09:02:56.710Z,15.19
2022-09-17T09:05:41.917Z,14.89
2022-09-17T09:08:44.874Z,14.92
2022-09-17T09:11:18.283Z,15.04
2022-09-17T09:13:52.526Z,15.34
2022-09-17T09:16:26.146Z,15.07
2022-09-17T09:19:25.070Z,15.27
2022-09-17T09:22:40.578Z,16.04
2022-09-17T09:25:31.034Z,15.84
2022-09-17T09:28:48.993Z,15.75
2022-09-17T09:31:57.033Z,15.23
2022-09-17T09:34:29.639Z,14.93
2022-09-17T09:37:39.217Z,15.32
2022-09-17T09:41:13.227Z,15.82
2022-09-17T09:44:03.990Z,16.25
2022-09-17T09:47:03.958Z,16.60
2022-09-17T09:50:43.199Z,16.21
2022-09-17T09:53:47.970Z,16.15
2022-09-17T09:56:59.417Z,17.01
2022-09-17T09:59:27.097Z,17.38
2022-09-17T10:01:54.327Z,17.37
2022-09-17T10:04:28.394Z,17.24
2022-09-17T10:07:11.193Z,16.73
2022-09-17T10:09:45.302Z,15.97
2022-09-17T10:12:12.086Z,16.27
2022-09-17T10:14:46.232Z,15.98
2022-09-17T10:17:25.406Z,15.89
2022-09-17T10:20:12.043Z,15.61
2022-09-17T10:22:42.665Z,15.79
2022-09-17T10:25:32.120Z,15.18
2022-09-17T10:28:21.221Z,15.66
2022-09-17T10:31:10.128Z,16.42
2022-09-17T10:33:59.273Z,16.37
2022-09-17T10:36:45.758Z,17.02
2022-09-17T10:39:44.216Z,16.88
2022-09-17T10:42:17.837Z,17.21
2022-09-17T10:44:57.711Z,17.34
2022-09-17T10:47:42.605Z,16.15
2022-09-17T10:50:29.378Z,16.48
2022-09-17T10:53:02.017Z,15.79
2022-09-17T10:55:51.019Z,16.25
2022-09-17T10:59:16.456Z,16.11
2022-09-17T11:02:17.052Z,16.49
2022-09-17T11:05:31.359Z,16.20
2022-09-17T11:08:24.519Z,16.58
2022-09-17T11:11:09.069Z,16.53
2022-09-17T11:14:06.926Z,16.19
2022-09-17T11:16:51.783Z,16.74
2022-09-17T11:19:40.603Z,16.80
2022-09-17T11:22:28.722Z,16.58
2022-09-17T11:26:08.269Z,15.59
2022-09-17T11:28:58.380Z,16.26
2022-09-17T11:31:54.087Z,16.35
2022-09-17T11:34:37.697Z,17.08
2022-09-17T11:37:33.725Z,17.71
2022-09-17T11:40:15.683Z,17.52
2022-09-17T11:42:54.290Z,18.41
2022-09-17T11:45:38.313Z,18.02
2022-09-17T11:48:18.327Z,16.76
2022-09-17T11:51:19.569Z,16.79
2022-09-17T11:54:19.135Z,16.50
2022-09-17T11:57:06.476Z,15.55
2022-09-17T12:00:03.153Z,15.93
2022-09-17T12:03:19.036Z,16.40
2022-09-17T12:05:59.962Z,16.66
2022-09-17T12:09:01.704Z,16.95
2022-09-17T12:12:37.900Z,17.22
2022-09-17T12:15:17.888Z,17.72
2022-09-17T12:18:43.489Z,17.31
2022-09-17T12:21:15.159Z,16.30
2022-09-17T12:24:20.489Z,17.57
2022-09-17T12:27:58.221Z,18.41
2022-09-17T12:30:33.153Z,17.76
2022-09-17T12:33:50.092Z,16.99
2022-09-17T12:36:40.907Z,16.90
2022-09-17T12:39:58.953Z,16.35
2022-09-17T12:42:40.508Z,16.78
2022-09-17T12:45:31.581Z,15.87
2022-09-17T12:49:03.744Z,16.57
2022-09-17T12:52:12.030Z,17.64
2022-09-17T12:55:13.853Z,16.75
2022-09-17T12:58:14.053Z,16.66
2022-09-17T13:00:53.657Z,16.58
2022-09-17T13:03:32.822Z,17.71
2022-09-17T13:06:56.179Z,18.20
2022-09-17T13:10:15.470Z,18.74
2022-09-17T13:12:50.511Z,18.53
2022-09-17T13:16:05.034Z,17.45
2022-09-17T13:19:05.633Z,17.52
2022-09-17T13:21:55.684Z,18.13
2022-09-17T13:24:27.016Z,17.79
2022-09-17T13:26:55.179Z,18.69
2022-09-17T13:29:43.949Z,17.93
2022-09-17T13:32:33.632Z,18.17
2022-09-17T13:35:15.223Z,18.36
2022-09-17T13:38:03.491Z,18.36
2022-09-17T13:40:37.351Z,18.45
2022-09-17T13:43:04.189Z,18.93
2022-09-17T13:45:33.839Z,18.55
2022-09-17T13:48:11.408Z,18.42
2022-09-17T13:50:44.422Z,19.42
2022-09-17T13:53:14.437Z,18.84
2022-09-17T13:56:01.115Z,18.55
2022-09-17T13:58:36.517Z,18.77
2022-09-17T14:01:13.581Z,18.60
2022-09-17T14:03:46.572Z,18.13
2022-09-17T14:06:18.036Z,18.67
2022-09-17T14:08:45.045Z,19.24
2022-09-17T14:11:33.450Z,18.47
2022-09-17T14:14:06.394Z,19.16
2022-09-17T14:16:50.277Z,18.57
2022-09-17T14:19:29.452Z,18.80
2022-09-17T14:22:00.598Z,18.97
2022-09-17T14:24:52.389Z,18.71
2022-09-17T14:27:56.777Z,18.27
2022-09-17T14:30:32.817Z,17.71
2022-09-17T14:33:26.114Z,18.26
2022-09-17T14:36:08.124Z,17.98
2022-09-17T14:38:44.818Z,17.94
2022-09-17T14:41:11.719Z,18.41
2022-09-17T14:44:06.755Z,18.10
2022-09-17T14:46:49.919Z,17.51
2022-09-17T14:49:35.392Z,18.40
2022-09-17T14:52:19.850Z,18.00
2022-09-17T14:54:46.841Z,18.26
2022-09-17T14:57:29.305Z,17.99
2022-09-17T15:00:00.562Z,18.25
2022-09-17T15:02:43.158Z,18.06
2022-09-17T15:05:42.439Z,17.31
2022-09-17T15:08:22.173Z,16.96
2022-09-17T15:11:06.752Z,16.65
2022-09-17T15:13:51.047Z,16.16
2022-09-17T15:16:27.984Z,15.99
2022-09-17T15:18:58.690Z,16.02
2022-09-17T15:21:34.474Z,14.88
2022-09-17T15:24:41.832Z,15.62
2022-09-17T15:27:22.293Z,15.55
2022-09-17T15:29:57.730Z,15.89
2022-09-17T15:32:25.150Z,16.02
2022-09-17T15:35:30.645Z,15.83
2022-09-17T15:38:28.070Z,15.75
2022-09-17T15:40:55.668Z,15.75
2022-09-17T15:43:33.466Z,15.52
2022-09-17T15:46:32.566Z,15.26
2022-09-17T15:49:04.248Z,15.26
2022-09-17T15:51:37.320Z,14.95
2022-09-17T15:54:07.074Z,15.22
2022-09-17T15:56:40.207Z,15.11
2022-09-17T15:59:26.765Z,15.02
2022-09-17T16:01:57.322Z,14.66
2022-09-17T16:04:34.490Z,14.93
2022-09-17T16:07:07.801Z,14.87
2022-09-17T16:09:47.936Z,15.07
2022-09-17T16:12:26.054Z,14.17
2022-09-17T16:14:57.235Z,14.35
2022-09-17T16:17:33.236Z,14.49
2022-09-17T16:20:06.479Z,14.19
2022-09-17T16:22:33.611Z,14.48
2022-09-17T16:25:00.567Z,14.49
2022-09-17T16:27:33.012Z,14.05
2022-09-17T16:30:09.424Z,14.24
2022-09-17T16:32:36.376Z,14.20
2022-09-17T16:35:03.470Z,14.45
2022-09-17T16:37:30.471Z,13.80
2022-09-17T16:39:57.450Z,14.03
2022-09-17T16:42:24.456Z,13.63
2022-09-17T16:44:51.382Z,13.59
2022-09-17T16:47:18.465Z,13.72
2022-09-17T16:49:45.389Z,13.31
2022-09-17T16:52:12.338Z,13.61
2022-09-17T16:54:39.393Z,13.67
2022-09-17T16:57:06.325Z,13.59
2022-09-17T16:59:33.378Z,13.63
2022-09-17T17:02:00.589Z,13.41
2022-09-17T17:04:27.543Z,13.48
2022-09-17T17:06:54.484Z,13.47
2022-09-17T17:09:21.590Z,13.33
2022-09-17T17:11:48.548Z,12.50
2022-09-17T17:14:15.559Z,13.04
2022-09-17T17:16:43.584Z,12.89
2022-09-17T17:19:10.973Z,12.72
2022-09-17T17:21:38.113Z,13.15
2022-09-17T17:24:06.705Z,12.79
2022-09-17T17:26:34.576Z,13.12
2022-09-17T17:29:02.846Z,13.22
2022-09-17T17:31:33.131Z,13.41
2022-09-17T17:34:00.219Z,13.01
2022-09-17T17:36:27.939Z,13.00
2022-09-17T17:38:59.985Z,13.25
2022-09-17T17:41:28.570Z,12.99
2022-09-17T17:43:57.691Z,12.95
2022-09-17T17:46:25.129Z,13.03
2022-09-17T17:48:52.406Z,12.98
2022-09-17T17:51:19.523Z,13.11
2022-09-17T17:53:46.854Z,13.34
2022-09-17T17:56:14.165Z,13.04
2022-09-17T17:58:41.761Z,13.07
2022-09-17T18:01:22.315Z,12.88
2022-09-17T18:03:49.625Z,12.75
2022-09-17T18:06:16.832Z,12.64
2022-09-17T18:08:44.702Z,12.75
2022-09-17T18:11:12.372Z,12.98
2022-09-17T18:13:40.329Z,12.97
2022-09-17T18:16:11.789Z,12.88
2022-09-17T18:18:45.402Z,12.77
2022-09-17T18:21:22.782Z,12.81
2022-09-17T18:23:51.000Z,12.60
2022-09-17T18:26:25.488Z,12.97
2022-09-17T18:28:53.507Z,13.07
2022-09-17T18:31:28.257Z,13.16
2022-09-17T18:34:03.551Z,12.90
2022-09-17T18:36:34.085Z,12.42
2022-09-17T18:41:52.634Z,12.77
2022-09-17T18:44:21.672Z,12.72
2022-09-17T18:46:50.117Z,12.30
2022-09-17T18:49:17.418Z,12.25
2022-09-17T18:51:44.417Z,12.37
2022-09-17T18:54:14.841Z,12.33
2022-09-17T18:56:42.423Z,12.57
2022-09-17T18:59:10.828Z,12.27
2022-09-17T19:01:38.034Z,12.46
2022-09-17T19:04:07.478Z,12.47
2022-09-17T19:06:35.057Z,12.61
2022-09-17T19:09:04.698Z,12.67
2022-09-17T19:11:31.734Z,12.50
2022-09-17T19:13:58.923Z,12.60
2022-09-17T19:16:26.084Z,12.18
2022-09-17T19:18:53.141Z,12.11
2022-09-17T19:21:21.786Z,12.31
2022-09-17T19:23:51.909Z,12.28
2022-09-17T19:26:26.294Z,12.29
2022-09-17T19:28:57.712Z,12.54
2022-09-17T19:31:25.616Z,12.54
2022-09-17T19:33:52.875Z,12.74
2022-09-17T19:36:21.175Z,12.77
2022-09-17T19:38:48.936Z,12.81
2022-09-17T19:41:20.612Z,12.76
2022-09-17T19:43:50.278Z,12.72
2022-09-17T19:46:24.105Z,12.67
2022-09-17T19:48:55.860Z,12.69
2022-09-17T19:51:26.390Z,12.73
2022-09-17T19:53:53.482Z,12.67
2022-09-17T19:56:24.905Z,12.57
2022-09-17T19:58:52.495Z,12.41
2022-09-17T20:01:20.402Z,12.53
2022-09-17T20:03:47.809Z,12.32
2022-09-17T20:06:18.994Z,12.40
2022-09-17T20:08:51.087Z,12.19
2022-09-17T20:11:21.022Z,12.29
2022-09-17T20:13:48.407Z,12.02
2022-09-17T20:16:21.594Z,11.90
2022-09-17T20:18:50.270Z,11.75
2022-09-17T20:21:23.856Z,11.95
2022-09-17T20:23:51.139Z,11.92
2022-09-17T20:26:19.004Z,11.88
2022-09-17T20:28:48.038Z,11.78
2022-09-17T20:31:28.482Z,11.90
2022-09-17T20:34:02.357Z,12.00
2022-09-17T20:36:33.791Z,11.76
2022-09-17T20:39:21.946Z,11.73
2022-09-17T20:41:47.738Z,11.30
2022-09-17T20:44:14.705Z,11.59
2022-09-17T20:46:41.766Z,11.46
2022-09-17T20:49:08.922Z,10.97
2022-09-17T20:51:35.962Z,10.92
2022-09-17T20:54:03.354Z,10.99
2022-09-17T20:56:33.723Z,11.22
2022-09-17T20:59:17.679Z,11.16
2022-09-17T21:01:49.484Z,11.26
2022-09-17T21:04:22.012Z,11.55
2022-09-17T21:06:53.243Z,11.41
2022-09-17T21:09:20.899Z,11.72
2022-09-17T21:11:49.271Z,11.63
2022-09-17T21:14:18.121Z,11.73
2022-09-17T21:16:48.908Z,11.25
2022-09-17T21:19:16.582Z,11.55
2022-09-17T21:21:44.577Z,11.17
2022-09-17T21:24:12.488Z,11.39
2022-09-17T21:26:39.638Z,11.45
2022-09-17T21:29:06.660Z,11.67
2022-09-17T21:31:36.815Z,11.45
2022-09-17T21:34:09.530Z,11.55
2022-09-17T21:36:39.281Z,11.75
2022-09-17T21:39:14.463Z,11.80
2022-09-17T21:41:43.692Z,11.83
2022-09-17T21:44:12.784Z,11.58
2022-09-17T21:46:41.834Z,11.18
2022-09-17T21:49:09.597Z,11.56
2022-09-17T21:51:42.961Z,11.68
2022-09-17T21:54:16.717Z,11.61
2022-09-17T21:56:45.930Z,11.82
2022-09-17T21:59:15.846Z,11.58
2022-09-17T22:01:50.588Z,11.61
2022-09-17T22:04:22.071Z,11.73
2022-09-17T22:06:50.331Z,11.83
2022-09-17T22:09:24.693Z,11.86
2022-09-17T22:11:53.286Z,11.79
2022-09-17T22:14:24.141Z,11.91
2022-09-17T22:16:56.926Z,12.00
2022-09-17T22:19:25.530Z,11.72
2022-09-17T22:21:55.601Z,12.02
2022-09-17T22:24:24.155Z,12.02
2022-09-17T22:26:57.789Z,11.63
2022-09-17T22:29:29.068Z,11.84
2022-09-17T22:31:57.227Z,12.03
2022-09-17T22:34:25.777Z,11.94
2022-09-17T22:36:52.775Z,11.95
2022-09-17T22:39:23.084Z,11.86
2022-09-17T22:41:50.086Z,11.61
2022-09-17T22:44:19.826Z,11.76
2022-09-17T22:46:50.287Z,11.81
2022-09-17T22:49:18.896Z,11.73
2022-09-17T22:51:49.257Z,11.71
2022-09-17T22:54:18.275Z,11.91
2022-09-17T22:56:47.312Z,11.54
2022-09-17T22:59:14.425Z,11.52
2022-09-17T23:01:41.856Z,11.57
2022-09-17T23:04:09.694Z,11.65
2022-09-17T23:06:41.925Z,11.65
2022-09-17T23:09:11.111Z,11.58
2022-09-17T23:11:39.820Z,11.65
2022-09-17T23:14:11.920Z,11.74
2022-09-17T23:16:46.491Z,11.81
2022-09-17T23:19:19.910Z,11.61
2022-09-17T23:21:47.223Z,11.74
2022-09-17T23:24:21.657Z,11.73
2022-09-17T23:26:50.218Z,11.89
2022-09-17T23:29:17.818Z,11.78
2022-09-17T23:31:44.810Z,11.61
2022-09-17T23:34:11.926Z,11.66
2022-09-17T23:36:40.149Z,11.50
2022-09-17T23:39:11.562Z,11.75
2022-09-17T23:41:44.776Z,11.65
2022-09-17T23:44:15.778Z,11.50
2022-09-17T23:46:44.812Z,11.64
2022-09-17T23:49:13.807Z,11.67
2022-09-17T23:51:41.118Z,11.71
2022-09-17T23:54:08.296Z,11.79
2022-09-17T23:56:36.066Z,11.87
2022-09-17T23:59:07.219Z,11.63
